sensor_id;sensor_type;location;lat;lon;timestamp;P1;durP1;ratioP1;P2;durP2;ratioP2
20110;SDS011;10216;42.658;23.248;2023-02-14T00:02:21;17.97;;;13.23;;
20110;SDS011;10216;42.658;23.248;2023-02-14T00:04:46;20.50;;;14.30;;
20110;SDS011;10216;42.658;23.248;2023-02-14T00:07:12;19.30;;;13.73;;
20110;SDS011;10216;42.658;23.248;2023-02-14T00:09:37;21.20;;;14.50;;
20110;SDS011;10216;42.658;23.248;2023-02-14T00:12:03;20.73;;;14.50;;
20110;SDS011;10216;42.658;23.248;2023-02-14T00:14:28;22.73;;;14.47;;
20110;SDS011;10216;42.658;23.248;2023-02-14T00:17:12;22.20;;;15.30;;
20110;SDS011;10216;42.658;23.248;2023-02-14T00:19:37;20.97;;;14.63;;
20110;SDS011;10216;42.658;23.248;2023-02-14T00:22:03;20.17;;;15.07;;
20110;SDS011;10216;42.658;23.248;2023-02-14T00:24:28;24.93;;;14.67;;
20110;SDS011;10216;42.658;23.248;2023-02-14T00:26:53;19.87;;;14.53;;
20110;SDS011;10216;42.658;23.248;2023-02-14T00:29:20;17.40;;;13.17;;
20110;SDS011;10216;42.658;23.248;2023-02-14T00:31:46;21.30;;;14.73;;
20110;SDS011;10216;42.658;23.248;2023-02-14T00:34:11;19.87;;;14.80;;
20110;SDS011;10216;42.658;23.248;2023-02-14T00:36:37;19.87;;;14.90;;
20110;SDS011;10216;42.658;23.248;2023-02-14T00:39:03;18.93;;;14.47;;
20110;SDS011;10216;42.658;23.248;2023-02-14T00:41:29;22.43;;;15.13;;
20110;SDS011;10216;42.658;23.248;2023-02-14T00:43:55;19.67;;;14.40;;
20110;SDS011;10216;42.658;23.248;2023-02-14T00:46:21;21.00;;;15.30;;
20110;SDS011;10216;42.658;23.248;2023-02-14T00:48:46;19.13;;;15.20;;
20110;SDS011;10216;42.658;23.248;2023-02-14T00:51:11;21.33;;;14.60;;
20110;SDS011;10216;42.658;23.248;2023-02-14T00:53:39;22.10;;;15.20;;
20110;SDS011;10216;42.658;23.248;2023-02-14T00:56:04;22.13;;;14.97;;
20110;SDS011;10216;42.658;23.248;2023-02-14T00:58:30;19.90;;;14.47;;
20110;SDS011;10216;42.658;23.248;2023-02-14T01:00:55;23.40;;;15.63;;
20110;SDS011;10216;42.658;23.248;2023-02-14T01:03:20;21.57;;;14.90;;
20110;SDS011;10216;42.658;23.248;2023-02-14T01:05:46;24.80;;;16.13;;
20110;SDS011;10216;42.658;23.248;2023-02-14T01:08:11;20.97;;;15.93;;
20110;SDS011;10216;42.658;23.248;2023-02-14T01:10:36;23.37;;;16.00;;
20110;SDS011;10216;42.658;23.248;2023-02-14T01:13:02;22.27;;;15.83;;
20110;SDS011;10216;42.658;23.248;2023-02-14T01:15:28;23.30;;;14.77;;
20110;SDS011;10216;42.658;23.248;2023-02-14T01:17:53;25.40;;;16.10;;
20110;SDS011;10216;42.658;23.248;2023-02-14T01:20:18;21.87;;;16.50;;
20110;SDS011;10216;42.658;23.248;2023-02-14T01:22:44;23.53;;;16.33;;
20110;SDS011;10216;42.658;23.248;2023-02-14T01:25:09;21.97;;;16.73;;
20110;SDS011;10216;42.658;23.248;2023-02-14T01:27:34;23.40;;;17.00;;
20110;SDS011;10216;42.658;23.248;2023-02-14T01:29:59;22.07;;;16.80;;
20110;SDS011;10216;42.658;23.248;2023-02-14T01:32:24;23.30;;;15.77;;
20110;SDS011;10216;42.658;23.248;2023-02-14T01:34:50;24.63;;;17.80;;
20110;SDS011;10216;42.658;23.248;2023-02-14T01:37:15;26.37;;;16.97;;
20110;SDS011;10216;42.658;23.248;2023-02-14T01:39:40;21.13;;;15.50;;
20110;SDS011;10216;42.658;23.248;2023-02-14T01:42:05;23.13;;;16.43;;
20110;SDS011;10216;42.658;23.248;2023-02-14T01:46:56;21.67;;;16.67;;
20110;SDS011;10216;42.658;23.248;2023-02-14T01:49:27;23.50;;;16.67;;
20110;SDS011;10216;42.658;23.248;2023-02-14T01:51:54;22.30;;;16.07;;
20110;SDS011;10216;42.658;23.248;2023-02-14T01:54:21;23.37;;;16.17;;
20110;SDS011;10216;42.658;23.248;2023-02-14T01:56:48;20.80;;;15.93;;
20110;SDS011;10216;42.658;23.248;2023-02-14T01:59:17;21.87;;;16.27;;
20110;SDS011;10216;42.658;23.248;2023-02-14T02:01:43;22.77;;;16.33;;
20110;SDS011;10216;42.658;23.248;2023-02-14T02:04:11;23.97;;;16.83;;
20110;SDS011;10216;42.658;23.248;2023-02-14T02:06:40;25.53;;;17.17;;
20110;SDS011;10216;42.658;23.248;2023-02-14T02:11:43;23.90;;;16.67;;
20110;SDS011;10216;42.658;23.248;2023-02-14T02:14:16;23.10;;;16.10;;
20110;SDS011;10216;42.658;23.248;2023-02-14T02:24:27;26.10;;;18.30;;
20110;SDS011;10216;42.658;23.248;2023-02-14T02:27:13;20.63;;;16.37;;
20110;SDS011;10216;42.658;23.248;2023-02-14T02:39:55;23.47;;;16.83;;
20110;SDS011;10216;42.658;23.248;2023-02-14T02:42:25;23.23;;;16.53;;
20110;SDS011;10216;42.658;23.248;2023-02-14T02:50:18;22.57;;;15.70;;
20110;SDS011;10216;42.658;23.248;2023-02-14T02:55:49;20.00;;;13.30;;
20110;SDS011;10216;42.658;23.248;2023-02-14T02:58:39;22.73;;;14.87;;
20110;SDS011;10216;42.658;23.248;2023-02-14T03:01:08;22.17;;;13.87;;
20110;SDS011;10216;42.658;23.248;2023-02-14T03:03:34;16.97;;;14.17;;
20110;SDS011;10216;42.658;23.248;2023-02-14T03:06:18;21.70;;;14.83;;
20110;SDS011;10216;42.658;23.248;2023-02-14T03:08:44;19.83;;;14.60;;
20110;SDS011;10216;42.658;23.248;2023-02-14T03:11:09;21.00;;;14.33;;
20110;SDS011;10216;42.658;23.248;2023-02-14T03:13:48;16.33;;;10.53;;
20110;SDS011;10216;42.658;23.248;2023-02-14T03:24:02;21.43;;;14.00;;
20110;SDS011;10216;42.658;23.248;2023-02-14T03:26:41;20.57;;;14.77;;
20110;SDS011;10216;42.658;23.248;2023-02-14T03:32:05;25.83;;;14.47;;
20110;SDS011;10216;42.658;23.248;2023-02-14T03:34:46;20.07;;;13.90;;
20110;SDS011;10216;42.658;23.248;2023-02-14T03:39:51;21.33;;;14.23;;
20110;SDS011;10216;42.658;23.248;2023-02-14T03:42:20;21.33;;;14.40;;
20110;SDS011;10216;42.658;23.248;2023-02-14T03:44:48;22.57;;;15.13;;
20110;SDS011;10216;42.658;23.248;2023-02-14T03:47:15;21.20;;;13.23;;
20110;SDS011;10216;42.658;23.248;2023-02-14T03:49:45;22.20;;;14.77;;
20110;SDS011;10216;42.658;23.248;2023-02-14T03:52:12;19.60;;;14.23;;
20110;SDS011;10216;42.658;23.248;2023-02-14T03:54:38;19.77;;;13.43;;
20110;SDS011;10216;42.658;23.248;2023-02-14T03:59:48;19.27;;;12.73;;
20110;SDS011;10216;42.658;23.248;2023-02-14T04:04:43;19.90;;;12.97;;
20110;SDS011;10216;42.658;23.248;2023-02-14T04:07:13;19.63;;;13.60;;
20110;SDS011;10216;42.658;23.248;2023-02-14T04:09:39;18.97;;;13.97;;
20110;SDS011;10216;42.658;23.248;2023-02-14T04:12:04;22.13;;;14.90;;
20110;SDS011;10216;42.658;23.248;2023-02-14T04:14:30;19.67;;;14.07;;
20110;SDS011;10216;42.658;23.248;2023-02-14T04:16:57;21.10;;;14.40;;
20110;SDS011;10216;42.658;23.248;2023-02-14T04:19:40;17.80;;;13.20;;
20110;SDS011;10216;42.658;23.248;2023-02-14T04:22:06;18.93;;;13.93;;
20110;SDS011;10216;42.658;23.248;2023-02-14T04:24:31;20.60;;;13.07;;
20110;SDS011;10216;42.658;23.248;2023-02-14T04:26:56;19.83;;;13.33;;
20110;SDS011;10216;42.658;23.248;2023-02-14T04:32:09;15.70;;;11.87;;
20110;SDS011;10216;42.658;23.248;2023-02-14T04:34:34;18.67;;;12.60;;
20110;SDS011;10216;42.658;23.248;2023-02-14T04:36:59;18.77;;;12.70;;
20110;SDS011;10216;42.658;23.248;2023-02-14T04:39:25;20.40;;;13.17;;
20110;SDS011;10216;42.658;23.248;2023-02-14T04:41:50;17.93;;;12.97;;
20110;SDS011;10216;42.658;23.248;2023-02-14T04:44:15;20.33;;;12.70;;
20110;SDS011;10216;42.658;23.248;2023-02-14T04:46:40;19.57;;;12.10;;
20110;SDS011;10216;42.658;23.248;2023-02-14T04:49:06;20.87;;;13.63;;
20110;SDS011;10216;42.658;23.248;2023-02-14T04:51:31;20.07;;;13.03;;
20110;SDS011;10216;42.658;23.248;2023-02-14T04:53:56;22.47;;;13.50;;
20110;SDS011;10216;42.658;23.248;2023-02-14T04:56:21;13.23;;;10.03;;
20110;SDS011;10216;42.658;23.248;2023-02-14T04:58:47;17.93;;;11.43;;
20110;SDS011;10216;42.658;23.248;2023-02-14T05:01:12;17.57;;;12.63;;
20110;SDS011;10216;42.658;23.248;2023-02-14T05:03:37;19.70;;;12.93;;
20110;SDS011;10216;42.658;23.248;2023-02-14T05:06:02;17.73;;;12.80;;
20110;SDS011;10216;42.658;23.248;2023-02-14T05:08:28;16.43;;;11.93;;
20110;SDS011;10216;42.658;23.248;2023-02-14T05:10:53;18.60;;;12.37;;
20110;SDS011;10216;42.658;23.248;2023-02-14T05:13:18;17.43;;;12.10;;
20110;SDS011;10216;42.658;23.248;2023-02-14T05:15:44;21.80;;;14.07;;
20110;SDS011;10216;42.658;23.248;2023-02-14T05:18:09;17.50;;;13.10;;
20110;SDS011;10216;42.658;23.248;2023-02-14T05:20:34;18.27;;;12.97;;
20110;SDS011;10216;42.658;23.248;2023-02-14T05:23:00;18.40;;;12.77;;
20110;SDS011;10216;42.658;23.248;2023-02-14T05:25:27;16.17;;;11.90;;
20110;SDS011;10216;42.658;23.248;2023-02-14T05:27:53;17.20;;;11.87;;
20110;SDS011;10216;42.658;23.248;2023-02-14T05:30:18;19.97;;;12.57;;
20110;SDS011;10216;42.658;23.248;2023-02-14T05:32:46;18.60;;;13.53;;
20110;SDS011;10216;42.658;23.248;2023-02-14T05:35:11;19.43;;;14.00;;
20110;SDS011;10216;42.658;23.248;2023-02-14T05:37:36;20.97;;;12.70;;
20110;SDS011;10216;42.658;23.248;2023-02-14T05:40:01;17.17;;;12.23;;
20110;SDS011;10216;42.658;23.248;2023-02-14T05:42:27;20.73;;;12.87;;
20110;SDS011;10216;42.658;23.248;2023-02-14T05:44:52;16.60;;;12.83;;
20110;SDS011;10216;42.658;23.248;2023-02-14T05:47:17;17.83;;;13.27;;
20110;SDS011;10216;42.658;23.248;2023-02-14T05:49:44;17.77;;;13.03;;
20110;SDS011;10216;42.658;23.248;2023-02-14T05:52:09;19.27;;;13.27;;
20110;SDS011;10216;42.658;23.248;2023-02-14T05:54:34;19.77;;;12.97;;
20110;SDS011;10216;42.658;23.248;2023-02-14T05:56:59;19.43;;;14.00;;
20110;SDS011;10216;42.658;23.248;2023-02-14T05:59:25;19.13;;;13.07;;
20110;SDS011;10216;42.658;23.248;2023-02-14T06:01:50;20.53;;;13.63;;
20110;SDS011;10216;42.658;23.248;2023-02-14T06:04:15;18.30;;;13.27;;
20110;SDS011;10216;42.658;23.248;2023-02-14T06:06:40;16.67;;;12.13;;
20110;SDS011;10216;42.658;23.248;2023-02-14T06:09:06;21.30;;;12.63;;
20110;SDS011;10216;42.658;23.248;2023-02-14T06:11:31;17.23;;;12.77;;
20110;SDS011;10216;42.658;23.248;2023-02-14T06:13:56;18.00;;;12.03;;
20110;SDS011;10216;42.658;23.248;2023-02-14T06:16:21;17.83;;;13.30;;
20110;SDS011;10216;42.658;23.248;2023-02-14T06:18:47;18.80;;;13.63;;
20110;SDS011;10216;42.658;23.248;2023-02-14T06:21:12;22.50;;;14.33;;
20110;SDS011;10216;42.658;23.248;2023-02-14T06:23:37;20.30;;;13.77;;
20110;SDS011;10216;42.658;23.248;2023-02-14T06:26:02;20.77;;;15.03;;
20110;SDS011;10216;42.658;23.248;2023-02-14T06:28:28;19.23;;;15.00;;
20110;SDS011;10216;42.658;23.248;2023-02-14T06:30:53;17.40;;;13.67;;
20110;SDS011;10216;42.658;23.248;2023-02-14T06:33:18;17.50;;;14.90;;
20110;SDS011;10216;42.658;23.248;2023-02-14T06:35:43;17.70;;;14.13;;
20110;SDS011;10216;42.658;23.248;2023-02-14T06:38:09;19.23;;;13.23;;
20110;SDS011;10216;42.658;23.248;2023-02-14T06:40:34;19.57;;;14.57;;
20110;SDS011;10216;42.658;23.248;2023-02-14T06:42:59;19.53;;;14.93;;
20110;SDS011;10216;42.658;23.248;2023-02-14T06:45:24;21.30;;;15.27;;
20110;SDS011;10216;42.658;23.248;2023-02-14T06:47:50;17.13;;;13.30;;
20110;SDS011;10216;42.658;23.248;2023-02-14T06:50:15;15.03;;;12.30;;
20110;SDS011;10216;42.658;23.248;2023-02-14T06:52:40;20.17;;;13.27;;
20110;SDS011;10216;42.658;23.248;2023-02-14T06:55:07;19.03;;;13.80;;
20110;SDS011;10216;42.658;23.248;2023-02-14T06:57:32;19.43;;;12.83;;
20110;SDS011;10216;42.658;23.248;2023-02-14T06:59:58;15.83;;;12.67;;
20110;SDS011;10216;42.658;23.248;2023-02-14T07:02:23;16.57;;;12.33;;
20110;SDS011;10216;42.658;23.248;2023-02-14T07:04:48;18.83;;;14.43;;
20110;SDS011;10216;42.658;23.248;2023-02-14T07:07:13;15.93;;;11.43;;
20110;SDS011;10216;42.658;23.248;2023-02-14T07:09:38;17.90;;;12.43;;
20110;SDS011;10216;42.658;23.248;2023-02-14T07:12:04;17.50;;;12.57;;
20110;SDS011;10216;42.658;23.248;2023-02-14T07:14:29;17.00;;;12.33;;
20110;SDS011;10216;42.658;23.248;2023-02-14T07:16:54;20.17;;;12.67;;
20110;SDS011;10216;42.658;23.248;2023-02-14T07:19:19;14.80;;;11.80;;
20110;SDS011;10216;42.658;23.248;2023-02-14T07:21:45;19.33;;;13.30;;
20110;SDS011;10216;42.658;23.248;2023-02-14T07:24:10;16.00;;;11.93;;
20110;SDS011;10216;42.658;23.248;2023-02-14T07:26:35;12.97;;;10.13;;
20110;SDS011;10216;42.658;23.248;2023-02-14T07:29:00;17.93;;;12.67;;
20110;SDS011;10216;42.658;23.248;2023-02-14T07:31:26;15.80;;;11.73;;
20110;SDS011;10216;42.658;23.248;2023-02-14T07:33:51;20.40;;;13.63;;
20110;SDS011;10216;42.658;23.248;2023-02-14T07:36:16;17.63;;;11.40;;
20110;SDS011;10216;42.658;23.248;2023-02-14T07:38:41;18.50;;;12.73;;
20110;SDS011;10216;42.658;23.248;2023-02-14T07:41:07;18.33;;;12.60;;
20110;SDS011;10216;42.658;23.248;2023-02-14T07:43:32;18.17;;;12.40;;
20110;SDS011;10216;42.658;23.248;2023-02-14T07:46:00;16.37;;;11.93;;
20110;SDS011;10216;42.658;23.248;2023-02-14T07:48:26;16.03;;;11.33;;
20110;SDS011;10216;42.658;23.248;2023-02-14T07:50:51;15.27;;;11.23;;
20110;SDS011;10216;42.658;23.248;2023-02-14T07:53:17;16.07;;;12.27;;
20110;SDS011;10216;42.658;23.248;2023-02-14T07:55:42;18.13;;;11.13;;
20110;SDS011;10216;42.658;23.248;2023-02-14T07:58:07;17.07;;;11.33;;
20110;SDS011;10216;42.658;23.248;2023-02-14T08:00:33;17.10;;;11.40;;
20110;SDS011;10216;42.658;23.248;2023-02-14T08:02:58;16.80;;;11.33;;
20110;SDS011;10216;42.658;23.248;2023-02-14T08:05:24;17.47;;;12.23;;
20110;SDS011;10216;42.658;23.248;2023-02-14T08:07:49;15.13;;;10.27;;
20110;SDS011;10216;42.658;23.248;2023-02-14T08:10:14;13.77;;;10.50;;
20110;SDS011;10216;42.658;23.248;2023-02-14T08:12:40;15.90;;;11.67;;
20110;SDS011;10216;42.658;23.248;2023-02-14T08:15:24;14.53;;;11.20;;
20110;SDS011;10216;42.658;23.248;2023-02-14T08:18:08;14.97;;;10.67;;
20110;SDS011;10216;42.658;23.248;2023-02-14T08:20:33;17.67;;;10.13;;
20110;SDS011;10216;42.658;23.248;2023-02-14T08:22:58;15.17;;;9.43;;
20110;SDS011;10216;42.658;23.248;2023-02-14T08:25:24;14.57;;;11.30;;
20110;SDS011;10216;42.658;23.248;2023-02-14T08:27:49;14.90;;;11.07;;
20110;SDS011;10216;42.658;23.248;2023-02-14T08:30:14;15.00;;;10.70;;
20110;SDS011;10216;42.658;23.248;2023-02-14T08:32:39;15.77;;;11.40;;
20110;SDS011;10216;42.658;23.248;2023-02-14T08:35:05;16.47;;;10.37;;
20110;SDS011;10216;42.658;23.248;2023-02-14T08:37:30;14.30;;;10.47;;
20110;SDS011;10216;42.658;23.248;2023-02-14T08:39:55;15.57;;;11.20;;
20110;SDS011;10216;42.658;23.248;2023-02-14T08:42:20;16.23;;;12.27;;
20110;SDS011;10216;42.658;23.248;2023-02-14T08:44:46;18.00;;;12.70;;
20110;SDS011;10216;42.658;23.248;2023-02-14T08:47:11;15.80;;;11.53;;
20110;SDS011;10216;42.658;23.248;2023-02-14T08:49:36;17.13;;;13.30;;
20110;SDS011;10216;42.658;23.248;2023-02-14T08:52:01;19.83;;;14.37;;
20110;SDS011;10216;42.658;23.248;2023-02-14T08:54:27;18.97;;;13.77;;
20110;SDS011;10216;42.658;23.248;2023-02-14T08:56:52;21.33;;;14.43;;
20110;SDS011;10216;42.658;23.248;2023-02-14T08:59:17;18.87;;;14.20;;
20110;SDS011;10216;42.658;23.248;2023-02-14T09:01:42;22.20;;;15.13;;
20110;SDS011;10216;42.658;23.248;2023-02-14T09:04:08;20.07;;;14.57;;
20110;SDS011;10216;42.658;23.248;2023-02-14T09:06:35;21.20;;;14.90;;
20110;SDS011;10216;42.658;23.248;2023-02-14T09:09:01;21.80;;;13.13;;
20110;SDS011;10216;42.658;23.248;2023-02-14T09:11:26;20.70;;;12.73;;
20110;SDS011;10216;42.658;23.248;2023-02-14T09:13:52;21.00;;;13.90;;
20110;SDS011;10216;42.658;23.248;2023-02-14T09:16:18;17.23;;;12.40;;
20110;SDS011;10216;42.658;23.248;2023-02-14T09:18:44;17.10;;;12.57;;
20110;SDS011;10216;42.658;23.248;2023-02-14T09:21:11;16.20;;;11.50;;
20110;SDS011;10216;42.658;23.248;2023-02-14T09:23:37;16.17;;;11.73;;
20110;SDS011;10216;42.658;23.248;2023-02-14T09:26:03;16.17;;;12.17;;
20110;SDS011;10216;42.658;23.248;2023-02-14T09:28:29;16.67;;;10.90;;
20110;SDS011;10216;42.658;23.248;2023-02-14T09:30:54;18.83;;;11.90;;
20110;SDS011;10216;42.658;23.248;2023-02-14T09:33:19;19.13;;;12.70;;
20110;SDS011;10216;42.658;23.248;2023-02-14T09:35:44;17.47;;;11.90;;
20110;SDS011;10216;42.658;23.248;2023-02-14T09:38:10;18.50;;;11.87;;
20110;SDS011;10216;42.658;23.248;2023-02-14T09:40:42;18.53;;;12.30;;
20110;SDS011;10216;42.658;23.248;2023-02-14T09:43:08;22.47;;;12.07;;
20110;SDS011;10216;42.658;23.248;2023-02-14T09:45:35;22.73;;;14.03;;
20110;SDS011;10216;42.658;23.248;2023-02-14T09:55:53;20.50;;;13.57;;
20110;SDS011;10216;42.658;23.248;2023-02-14T09:58:55;23.27;;;14.43;;
20110;SDS011;10216;42.658;23.248;2023-02-14T10:01:14;19.97;;;13.50;;
20110;SDS011;10216;42.658;23.248;2023-02-14T10:06:25;22.10;;;15.07;;
20110;SDS011;10216;42.658;23.248;2023-02-14T10:09:01;22.70;;;13.87;;
20110;SDS011;10216;42.658;23.248;2023-02-14T10:11:29;21.87;;;14.90;;
20110;SDS011;10216;42.658;23.248;2023-02-14T10:13:58;21.30;;;13.73;;
20110;SDS011;10216;42.658;23.248;2023-02-14T10:16:26;17.17;;;12.20;;
20110;SDS011;10216;42.658;23.248;2023-02-14T10:21:40;20.30;;;12.57;;
20110;SDS011;10216;42.658;23.248;2023-02-14T10:24:15;15.83;;;11.17;;
20110;SDS011;10216;42.658;23.248;2023-02-14T10:26:41;16.20;;;11.50;;
20110;SDS011;10216;42.658;23.248;2023-02-14T10:29:16;15.23;;;11.57;;
20110;SDS011;10216;42.658;23.248;2023-02-14T10:34:21;17.90;;;12.43;;
20110;SDS011;10216;42.658;23.248;2023-02-14T10:52:38;11.30;;;8.77;;
20110;SDS011;10216;42.658;23.248;2023-02-14T10:55:09;12.93;;;9.97;;
20110;SDS011;10216;42.658;23.248;2023-02-14T10:57:38;12.33;;;8.50;;
20110;SDS011;10216;42.658;23.248;2023-02-14T11:02:41;12.10;;;8.10;;
20110;SDS011;10216;42.658;23.248;2023-02-14T11:05:13;12.90;;;9.27;;
20110;SDS011;10216;42.658;23.248;2023-02-14T11:07:43;10.53;;;7.30;;
20110;SDS011;10216;42.658;23.248;2023-02-14T11:10:10;13.17;;;7.77;;
20110;SDS011;10216;42.658;23.248;2023-02-14T11:12:38;21.53;;;8.63;;
20110;SDS011;10216;42.658;23.248;2023-02-14T11:15:14;11.23;;;8.50;;
20110;SDS011;10216;42.658;23.248;2023-02-14T11:17:43;10.87;;;8.13;;
20110;SDS011;10216;42.658;23.248;2023-02-14T11:20:27;11.03;;;7.63;;
20110;SDS011;10216;42.658;23.248;2023-02-14T11:22:54;11.97;;;8.30;;
20110;SDS011;10216;42.658;23.248;2023-02-14T11:25:27;11.13;;;7.73;;
20110;SDS011;10216;42.658;23.248;2023-02-14T11:27:57;12.73;;;8.57;;
20110;SDS011;10216;42.658;23.248;2023-02-14T11:30:42;12.00;;;8.33;;
20110;SDS011;10216;42.658;23.248;2023-02-14T11:35:52;11.33;;;8.37;;
20110;SDS011;10216;42.658;23.248;2023-02-14T11:38:24;11.30;;;8.23;;
20110;SDS011;10216;42.658;23.248;2023-02-14T11:40:53;12.37;;;7.97;;
20110;SDS011;10216;42.658;23.248;2023-02-14T11:43:28;9.40;;;7.00;;
20110;SDS011;10216;42.658;23.248;2023-02-14T11:46:03;11.40;;;7.57;;
20110;SDS011;10216;42.658;23.248;2023-02-14T11:48:28;12.53;;;8.27;;
20110;SDS011;10216;42.658;23.248;2023-02-14T11:53:19;10.97;;;7.67;;
20110;SDS011;10216;42.658;23.248;2023-02-14T11:55:49;8.73;;;6.67;;
20110;SDS011;10216;42.658;23.248;2023-02-14T11:58:24;11.67;;;6.90;;
20110;SDS011;10216;42.658;23.248;2023-02-14T12:00:52;9.60;;;6.43;;
20110;SDS011;10216;42.658;23.248;2023-02-14T12:03:18;10.13;;;7.03;;
20110;SDS011;10216;42.658;23.248;2023-02-14T12:05:44;10.07;;;7.27;;
20110;SDS011;10216;42.658;23.248;2023-02-14T12:08:10;9.20;;;6.90;;
20110;SDS011;10216;42.658;23.248;2023-02-14T12:10:36;10.10;;;7.40;;
20110;SDS011;10216;42.658;23.248;2023-02-14T12:13:23;8.60;;;6.80;;
20110;SDS011;10216;42.658;23.248;2023-02-14T12:20:43;11.03;;;6.83;;
20110;SDS011;10216;42.658;23.248;2023-02-14T12:23:12;7.73;;;6.10;;
20110;SDS011;10216;42.658;23.248;2023-02-14T12:25:41;8.13;;;6.20;;
20110;SDS011;10216;42.658;23.248;2023-02-14T12:28:09;9.77;;;6.60;;
20110;SDS011;10216;42.658;23.248;2023-02-14T12:30:35;8.10;;;5.73;;
20110;SDS011;10216;42.658;23.248;2023-02-14T12:33:01;9.67;;;6.63;;
20110;SDS011;10216;42.658;23.248;2023-02-14T12:35:40;8.90;;;7.00;;
20110;SDS011;10216;42.658;23.248;2023-02-14T12:38:32;8.17;;;6.20;;
20110;SDS011;10216;42.658;23.248;2023-02-14T12:41:20;11.33;;;6.30;;
20110;SDS011;10216;42.658;23.248;2023-02-14T12:43:52;9.77;;;6.40;;
20110;SDS011;10216;42.658;23.248;2023-02-14T12:51:39;8.33;;;6.87;;
20110;SDS011;10216;42.658;23.248;2023-02-14T12:56:49;9.63;;;6.70;;
20110;SDS011;10216;42.658;23.248;2023-02-14T12:59:18;9.37;;;7.00;;
20110;SDS011;10216;42.658;23.248;2023-02-14T13:16:49;8.87;;;6.80;;
20110;SDS011;10216;42.658;23.248;2023-02-14T13:22:03;11.43;;;8.23;;
20110;SDS011;10216;42.658;23.248;2023-02-14T13:24:33;10.80;;;7.50;;
20110;SDS011;10216;42.658;23.248;2023-02-14T13:27:00;12.80;;;7.93;;
20110;SDS011;10216;42.658;23.248;2023-02-14T13:29:49;9.53;;;6.97;;
20110;SDS011;10216;42.658;23.248;2023-02-14T13:32:13;10.43;;;6.87;;
20110;SDS011;10216;42.658;23.248;2023-02-14T13:34:43;11.70;;;7.67;;
20110;SDS011;10216;42.658;23.248;2023-02-14T13:37:10;10.50;;;7.50;;
20110;SDS011;10216;42.658;23.248;2023-02-14T13:39:37;9.57;;;7.83;;
20110;SDS011;10216;42.658;23.248;2023-02-14T13:42:04;10.90;;;7.27;;
20110;SDS011;10216;42.658;23.248;2023-02-14T13:44:45;11.70;;;8.07;;
20110;SDS011;10216;42.658;23.248;2023-02-14T13:47:15;14.57;;;11.43;;
20110;SDS011;10216;42.658;23.248;2023-02-14T13:49:45;12.17;;;8.40;;
20110;SDS011;10216;42.658;23.248;2023-02-14T13:52:10;10.27;;;7.63;;
20110;SDS011;10216;42.658;23.248;2023-02-14T14:00:19;11.73;;;8.70;;
20110;SDS011;10216;42.658;23.248;2023-02-14T14:02:40;11.60;;;7.30;;
20110;SDS011;10216;42.658;23.248;2023-02-14T14:08:15;9.77;;;8.07;;
20110;SDS011;10216;42.658;23.248;2023-02-14T14:10:40;10.10;;;7.33;;
20110;SDS011;10216;42.658;23.248;2023-02-14T14:13:06;11.10;;;7.77;;
20110;SDS011;10216;42.658;23.248;2023-02-14T14:15:31;10.77;;;7.67;;
20110;SDS011;10216;42.658;23.248;2023-02-14T14:20:38;9.37;;;7.73;;
20110;SDS011;10216;42.658;23.248;2023-02-14T14:23:22;10.03;;;7.63;;
20110;SDS011;10216;42.658;23.248;2023-02-14T14:25:48;10.93;;;8.00;;
20110;SDS011;10216;42.658;23.248;2023-02-14T14:28:17;11.97;;;8.37;;
20110;SDS011;10216;42.658;23.248;2023-02-14T14:30:43;9.90;;;7.80;;
20110;SDS011;10216;42.658;23.248;2023-02-14T14:35:37;12.37;;;8.70;;
20110;SDS011;10216;42.658;23.248;2023-02-14T14:38:02;10.90;;;8.30;;
20110;SDS011;10216;42.658;23.248;2023-02-14T14:40:31;9.57;;;7.60;;
20110;SDS011;10216;42.658;23.248;2023-02-14T14:43:04;13.17;;;7.70;;
20110;SDS011;10216;42.658;23.248;2023-02-14T14:45:29;11.07;;;7.43;;
20110;SDS011;10216;42.658;23.248;2023-02-14T14:47:56;10.43;;;7.37;;
20110;SDS011;10216;42.658;23.248;2023-02-14T14:50:23;11.03;;;8.50;;
20110;SDS011;10216;42.658;23.248;2023-02-14T14:52:50;13.13;;;8.47;;
20110;SDS011;10216;42.658;23.248;2023-02-14T14:55:40;10.87;;;9.10;;
20110;SDS011;10216;42.658;23.248;2023-02-14T14:58:04;11.27;;;8.57;;
20110;SDS011;10216;42.658;23.248;2023-02-14T15:00:31;11.43;;;8.60;;
20110;SDS011;10216;42.658;23.248;2023-02-14T15:05:36;10.70;;;8.30;;
20110;SDS011;10216;42.658;23.248;2023-02-14T15:08:15;11.23;;;8.07;;
20110;SDS011;10216;42.658;23.248;2023-02-14T15:10:41;10.43;;;8.53;;
20110;SDS011;10216;42.658;23.248;2023-02-14T15:13:08;13.50;;;9.10;;
20110;SDS011;10216;42.658;23.248;2023-02-14T15:15:53;15.37;;;9.70;;
20110;SDS011;10216;42.658;23.248;2023-02-14T15:18:19;14.53;;;10.23;;
20110;SDS011;10216;42.658;23.248;2023-02-14T15:20:47;15.47;;;9.70;;
20110;SDS011;10216;42.658;23.248;2023-02-14T15:23:15;12.27;;;9.50;;
20110;SDS011;10216;42.658;23.248;2023-02-14T15:25:42;10.27;;;8.20;;
20110;SDS011;10216;42.658;23.248;2023-02-14T15:28:10;10.17;;;7.20;;
20110;SDS011;10216;42.658;23.248;2023-02-14T15:30:36;12.90;;;9.00;;
20110;SDS011;10216;42.658;23.248;2023-02-14T15:33:04;15.63;;;8.93;;
20110;SDS011;10216;42.658;23.248;2023-02-14T15:35:31;12.57;;;8.63;;
20110;SDS011;10216;42.658;23.248;2023-02-14T15:37:57;10.37;;;8.20;;
20110;SDS011;10216;42.658;23.248;2023-02-14T15:40:24;11.73;;;8.20;;
20110;SDS011;10216;42.658;23.248;2023-02-14T15:42:50;13.13;;;8.33;;
20110;SDS011;10216;42.658;23.248;2023-02-14T15:47:55;10.37;;;8.17;;
20110;SDS011;10216;42.658;23.248;2023-02-14T15:50:22;10.70;;;7.47;;
20110;SDS011;10216;42.658;23.248;2023-02-14T15:52:50;10.57;;;8.03;;
20110;SDS011;10216;42.658;23.248;2023-02-14T15:55:17;10.77;;;8.40;;
20110;SDS011;10216;42.658;23.248;2023-02-14T15:57:43;10.77;;;8.57;;
20110;SDS011;10216;42.658;23.248;2023-02-14T16:00:16;12.50;;;8.17;;
20110;SDS011;10216;42.658;23.248;2023-02-14T16:02:44;11.97;;;8.23;;
20110;SDS011;10216;42.658;23.248;2023-02-14T16:05:16;10.50;;;8.20;;
20110;SDS011;10216;42.658;23.248;2023-02-14T16:07:54;9.97;;;6.83;;
20110;SDS011;10216;42.658;23.248;2023-02-14T16:12:52;25.03;;;13.00;;
20110;SDS011;10216;42.658;23.248;2023-02-14T16:15:18;12.10;;;8.77;;
20110;SDS011;10216;42.658;23.248;2023-02-14T16:17:44;12.23;;;8.97;;
20110;SDS011;10216;42.658;23.248;2023-02-14T16:25:37;12.50;;;9.40;;
20110;SDS011;10216;42.658;23.248;2023-02-14T16:28:04;12.20;;;9.57;;
20110;SDS011;10216;42.658;23.248;2023-02-14T16:30:29;11.03;;;8.50;;
20110;SDS011;10216;42.658;23.248;2023-02-14T16:32:54;9.87;;;7.60;;
20110;SDS011;10216;42.658;23.248;2023-02-14T16:35:21;11.57;;;9.00;;
20110;SDS011;10216;42.658;23.248;2023-02-14T16:37:46;10.73;;;8.53;;
20110;SDS011;10216;42.658;23.248;2023-02-14T16:40:13;11.97;;;8.67;;
20110;SDS011;10216;42.658;23.248;2023-02-14T16:42:39;14.77;;;9.67;;
20110;SDS011;10216;42.658;23.248;2023-02-14T16:45:05;14.57;;;9.43;;
20110;SDS011;10216;42.658;23.248;2023-02-14T16:47:30;19.33;;;11.23;;